LEALLECO

Guest
Details From LEAL - Alicante
To LECO - A Coruna
Flight Number -
Tags Generated
Created
Modified
Stats Distance 466 nm / 863 km
Max Altitude 0 ft / 0 m
Waypoints 4
Social Downloads 1
Likes 0
Share VATSIM

Download

Looking for another format? Having issues loading an existing format? Contact us
Advertisement - Login to hide

Notes

Generated

Route

LEAL COTOS BERAX LECO

ID Type Via Altitude Latitude Longitude Leg Dist Tot Dist Heading (true) Name
O LEAL APT - 0 ft / 0 m 38.28452˚ -0.57500˚ - 0 nm - -
COTOS FIX - 0 ft / 0 m 40.73230˚ -4.06099˚ 218 nm 218 nm 313° / 311° -
BERAX FIX - 0 ft / 0 m 43.25123˚ -8.17267˚ 237 nm 456 nm 311° / 308° -
O LECO APT - 0 ft / 0 m 43.29478˚ -8.38323˚ 9 nm 465 nm 286° / 286° -

Altitude Profile

Advertisement - Login to hide

Weather


0- 5 10 15 20 25 30 35+ Temperature / ° C

Clouds and Precipitation
Forecast for 2018-05-27 00:00 UTC. Updated 5 hours ago

Ground ~20,000 ft ~40,000 ft Winds

LEAL

Details ICAO LEAL (ALC)
Name Alicante
Region Spain
Timezone Europe/Madrid (UTC+2.0)
Stats Elevation 141 ft / 43 m (AMSL)
Location 38.282169° -0.558157°
Runways 1
Magnetic Variation 0.233° E

METAR

LEAL 270400Z 24004KT CAVOK 17/15 Q1012 NOSIG

Decode

TAF

TAF TAF LEAL 262300Z 2700/2724 VRB03KT 9999 FEW020 TX25/2712Z TN16/2706Z PROB40 TEMPO 2700/2706 4000 BR BKN010 TEMPO 2701/2703 34008KT TEMPO 2703/2706 21010KT BECMG 2706/2708 18008KT PROB40 TEMPO 2712/2717 17014G24KT BECMG 2717/2719 VRB04KT

Decode

Departure Runways

ID Width Length Bearing (true) Bearing (mag) Surface Threshold Offset Overrun Length
10 148 ft / 45 m 9,799 ft / 2,987 m 100.07° 99.84° Asphalt 0 ft / 0 m 164 ft / 50 m
28 148 ft / 45 m 9,799 ft / 2,987 m 280.09° 279.86° Asphalt 0 ft / 0 m 197 ft / 60 m

LECO

Details ICAO LECO (LCG)
Name A Coruna
Region Spain
Timezone Europe/Madrid (UTC+2.0)
Stats Elevation 323 ft / 98 m (AMSL)
Location 43.302264° -8.377086°
Runways 1
Magnetic Variation 2.331° W

METAR

LECO 270400Z VRB01KT 9999 BKN030 14/12 Q1015 NOSIG

Decode

TAF

TAF LECO 270200Z 2703/2803 33008KT 8000 SCT012 BKN030 TX17/2714Z TN12/2706Z PROB40 TEMPO 2703/2803 3000 -DZ BR BKN010 BKN014 PROB40 TEMPO 2703/2709 1500 DZ BCFG BKN005 PROB30 TEMPO 2703/2706 0600 BCFG VV002

Decode

Destination Runways

ID Width Length Bearing (true) Bearing (mag) Surface Threshold Offset Overrun Length
04 148 ft / 45 m 6,371 ft / 1,942 m 30.94° 33.27° Asphalt 0 ft / 0 m 194 ft / 59 m
22 148 ft / 45 m 6,371 ft / 1,942 m 210.94° 213.27° Asphalt 0 ft / 0 m 203 ft / 62 m

Approach Navaids

Runway Type Ident Frequency Range Bearing (true) Bearing (mag) Slope Elevation
22 Localiser LCO 109.90 MHz 18 nm / 33 km 210.89° 213.22° - 329 ft / 100 m (AMSL)
22 Glidescope LCO 109.90 MHz 10 nm / 19 km 210.94° 213.27° 3.00° 323 ft / 98 m (AMSL)
22 DME LCO 109.90 MHz 18 nm / 33 km - - - 293 ft / 89 m (AMSL)

Popular Alternatives